Карточка аэропорта UMKK

Внимание!
Информация на этой странице в стадии наполнения.
Если вы не увидели какой-то информации, или заметили неточность - пожалуйста сообщите нам!
Спасибо!
Команда RU-STAFF
Название аэропортаХраброво
Название аэропорта (англ.)Khrabrovo
Превышение43 ft. (13.1 m.)
Координаты54°53.4', 20°35.55'
Высота перехода4000ft
Эшелон переходаFL50 (QNH>=1013hPa); FL60 (QNH<1013hPa); FL50 (QNH<977hPa);
Коды ответчика6620-6637
Зона ОрВДКалининград РПИ (UMKK)
Данные METARUMKK 210630Z 21004MPS 9000 BKN006 OVC017 05/05 Q1014 R24/290095 NOSIG RMK QBB180 OBST OBSC QFE759/1012
Проноз погоды (TAF)UMKK 210451Z 2106/2206 21003G08MPS 6000 -RADZ BKN006 OVC011 TEMPO 2106/2114 1500 SHRA BR BKN003 BKN013CB BECMG 2108/2110 21006G12MPS BECMG 2114/2115 26006G12MPS BKN010 TEMPO 2200/2206 20003MPS 0300 FG VV002
NOTAMshow/hide NOTAM
AWOS   TABLE

Информация о ВПП

ВПП Длина ВПП (м.) Покрытие Курс ВПП Частота ILS
243350Асфальтобетон240109.5
063350Асфальтобетон60110.3

Диспетчерские позиции

Позывной Наименование органа УВД Частота
UMKK_APPКалининград-Подход126.0
UMKK_TWRКалининград-Вышка127.2



Спутниковое изображение